createdAt,value
2023-05-24T00:00:17.988Z,0.0
2023-05-24T00:05:18.044Z,0.0
2023-05-24T00:10:18.051Z,0.0
2023-05-24T00:15:18.035Z,0.0
2023-05-24T00:20:17.993Z,0.0
2023-05-24T00:25:18.489Z,0.0
2023-05-24T00:30:18.138Z,0.0
2023-05-24T00:35:18.091Z,0.0
2023-05-24T00:40:18.159Z,0.0
2023-05-24T00:45:18.258Z,0.0
2023-05-24T00:50:18.150Z,0.0
2023-05-24T00:55:18.494Z,0.0
2023-05-24T01:00:18.709Z,0.0
2023-05-24T01:05:18.368Z,0.0
2023-05-24T01:10:18.284Z,0.0
2023-05-24T01:15:18.160Z,0.0
2023-05-24T01:20:18.215Z,0.0
2023-05-24T01:25:18.374Z,0.0
2023-05-24T01:30:18.207Z,0.0
2023-05-24T01:35:18.478Z,0.0
2023-05-24T01:40:18.407Z,0.0
2023-05-24T01:45:19.647Z,0.0
2023-05-24T01:50:19.327Z,0.0
2023-05-24T01:55:18.308Z,0.0
2023-05-24T02:00:18.427Z,0.0
2023-05-24T02:05:18.485Z,0.0
2023-05-24T02:10:18.845Z,0.0
2023-05-24T02:15:18.208Z,0.0
2023-05-24T02:20:18.405Z,0.0
2023-05-24T02:25:18.266Z,0.0
2023-05-24T02:30:18.393Z,0.0
2023-05-24T02:35:18.250Z,0.0
2023-05-24T02:40:18.414Z,0.0
2023-05-24T02:45:18.494Z,0.0
2023-05-24T02:50:18.620Z,0.0
2023-05-24T02:55:18.525Z,0.0
2023-05-24T03:00:18.755Z,0.0
2023-05-24T03:05:18.403Z,0.0
2023-05-24T03:10:18.907Z,0.0
2023-05-24T03:15:18.488Z,0.0
2023-05-24T03:20:18.810Z,0.0
2023-05-24T03:25:18.671Z,0.0
2023-05-24T03:30:18.526Z,0.0
2023-05-24T03:35:18.494Z,0.0
2023-05-24T03:40:18.551Z,0.0
2023-05-24T03:45:27.105Z,0.0
2023-05-24T03:50:20.466Z,0.0
2023-05-24T03:55:18.538Z,0.0
2023-05-24T04:00:17.538Z,0.0
2023-05-24T04:05:17.553Z,0.0
2023-05-24T04:10:17.945Z,0.0
2023-05-24T04:15:17.471Z,0.0
2023-05-24T04:20:17.659Z,0.0
2023-05-24T04:25:18.119Z,0.0
2023-05-24T04:30:17.531Z,0.0
2023-05-24T04:35:17.485Z,0.0
2023-05-24T04:40:17.903Z,0.0
2023-05-24T04:45:17.637Z,0.0
2023-05-24T04:50:17.612Z,0.0
2023-05-24T04:55:17.760Z,0.0
2023-05-24T05:00:18.207Z,0.0
2023-05-24T05:05:17.647Z,0.0
2023-05-24T05:10:17.760Z,0.0
2023-05-24T05:15:17.605Z,0.0
2023-05-24T05:20:17.866Z,0.0
2023-05-24T05:25:17.707Z,0.0
2023-05-24T05:30:18.390Z,0.0
2023-05-24T05:35:17.889Z,0.0
2023-05-24T05:40:17.941Z,0.0
2023-05-24T05:45:18.953Z,0.0
2023-05-24T05:50:18.958Z,0.0
2023-05-24T05:55:18.037Z,0.0
2023-05-24T06:00:17.692Z,0.0
2023-05-24T06:05:18.081Z,0.0
2023-05-24T06:10:18.119Z,0.0
2023-05-24T06:15:17.681Z,0.0
2023-05-24T06:20:17.944Z,0.0
2023-05-24T06:25:17.924Z,0.0
2023-05-24T06:30:18.086Z,0.0
2023-05-24T06:35:18.257Z,0.0
2023-05-24T06:40:18.636Z,0.0
2023-05-24T06:45:18.101Z,0.0
2023-05-24T06:50:17.892Z,0.0
2023-05-24T06:55:18.027Z,0.0
2023-05-24T07:00:17.925Z,0.0
2023-05-24T07:05:17.905Z,0.0
2023-05-24T07:10:18.174Z,0.0
2023-05-24T07:15:17.391Z,0.0
2023-05-24T07:20:17.165Z,0.0
2023-05-24T07:25:17.144Z,0.0
2023-05-24T07:30:31.175Z,0.0
2023-05-24T07:35:17.376Z,0.0
2023-05-24T07:40:19.313Z,0.0
2023-05-24T07:45:18.129Z,0.0
2023-05-24T07:50:18.460Z,0.0
2023-05-24T07:55:17.333Z,0.0
2023-05-24T08:00:16.998Z,0.0
2023-05-24T08:05:17.055Z,0.0
2023-05-24T08:10:17.201Z,0.0
2023-05-24T08:15:16.995Z,0.0
2023-05-24T08:20:18.081Z,0.0
2023-05-24T08:25:17.505Z,0.0
2023-05-24T08:30:17.423Z,0.0
2023-05-24T08:35:21.047Z,0.0
2023-05-24T08:40:17.452Z,0.0
2023-05-24T08:45:17.166Z,0.0
2023-05-24T08:50:17.196Z,0.0
2023-05-24T08:55:17.708Z,0.0
2023-05-24T09:00:17.217Z,0.0
2023-05-24T09:05:17.525Z,0.0
2023-05-24T09:10:17.242Z,0.0
2023-05-24T09:15:17.133Z,0.0
2023-05-24T09:20:17.370Z,0.0
2023-05-24T09:25:17.176Z,0.0
2023-05-24T09:30:17.529Z,0.0
2023-05-24T09:35:17.251Z,0.0
2023-05-24T09:40:18.504Z,0.0
2023-05-24T09:45:18.340Z,0.0
2023-05-24T09:50:18.385Z,0.0
2023-05-24T09:55:18.344Z,0.0
2023-05-24T10:00:17.758Z,0.0
2023-05-24T10:05:18.116Z,0.0
2023-05-24T10:15:17.251Z,0.0
2023-05-24T10:20:17.380Z,0.0
2023-05-24T10:25:19.476Z,0.0
2023-05-24T10:30:17.376Z,0.0
2023-05-24T10:35:17.452Z,0.0
2023-05-24T10:40:17.870Z,0.0
2023-05-24T10:45:17.519Z,0.0
2023-05-24T10:50:17.409Z,0.0
2023-05-24T10:55:17.684Z,0.0
2023-05-24T11:00:30.560Z,0.0
2023-05-24T11:05:17.265Z,0.0
2023-05-24T11:10:17.526Z,0.0
2023-05-24T11:15:17.802Z,0.0
2023-05-24T11:20:17.445Z,0.2
2023-05-24T11:25:17.676Z,0.5
2023-05-24T11:30:17.490Z,0.5
2023-05-24T11:35:17.682Z,0.6
2023-05-24T11:40:17.679Z,0.6
2023-05-24T11:45:19.159Z,0.7
2023-05-24T11:50:18.870Z,0.7
2023-05-24T11:55:17.681Z,0.8
2023-05-24T12:00:17.554Z,0.8
2023-05-24T12:05:17.689Z,0.9
2023-05-24T12:10:17.949Z,1.0
2023-05-24T12:15:17.709Z,1.0
2023-05-24T12:20:17.958Z,1.1
2023-05-24T12:25:17.600Z,1.2
2023-05-24T12:30:17.628Z,1.3
2023-05-24T12:35:17.595Z,1.3
2023-05-24T12:40:17.814Z,1.4
2023-05-24T12:45:17.797Z,1.5
2023-05-24T12:50:17.774Z,1.5
2023-05-24T12:55:18.218Z,1.6
2023-05-24T13:00:17.754Z,1.7
2023-05-24T14:25:39.731Z,1.8
2023-05-24T14:25:40.902Z,1.9
2023-05-24T14:25:42.245Z,2.0
2023-05-24T14:25:43.513Z,2.1
2023-05-24T14:25:44.674Z,2.2
2023-05-24T14:25:45.878Z,2.3
2023-05-24T14:26:40.437Z,2.7
2023-05-24T14:26:41.187Z,2.8
2023-05-24T14:26:41.951Z,2.9
2023-05-24T14:26:48.317Z,3.0
2023-05-24T14:26:49.065Z,3.0
2023-05-24T14:26:49.818Z,3.1
2023-05-24T14:30:17.378Z,3.1
2023-05-24T14:35:16.684Z,3.2
2023-05-24T14:40:19.139Z,3.4
2023-05-24T14:45:16.949Z,3.5
2023-05-24T14:50:16.717Z,3.5
2023-05-24T14:55:17.001Z,3.6
2023-05-24T15:00:18.557Z,3.6
2023-05-24T15:05:16.733Z,3.6
2023-05-24T15:10:16.771Z,3.7
2023-05-24T15:15:16.815Z,3.7
2023-05-24T15:20:16.872Z,3.8
2023-05-24T15:25:17.142Z,4.0
2023-05-24T15:30:16.911Z,4.0
2023-05-24T15:35:16.804Z,4.0
2023-05-24T15:40:16.917Z,4.0
2023-05-24T15:45:16.839Z,4.1
2023-05-24T15:50:25.812Z,4.2
2023-05-24T15:55:17.054Z,4.2
2023-05-24T16:00:16.849Z,4.3
2023-05-24T16:05:17.786Z,4.3
2023-05-24T16:10:16.990Z,4.4
2023-05-24T16:15:16.915Z,4.4
2023-05-24T16:20:16.910Z,4.4
2023-05-24T16:25:17.674Z,4.5
2023-05-24T16:30:16.958Z,4.5
2023-05-24T16:35:17.300Z,4.6
2023-05-24T16:40:17.414Z,4.5
2023-05-24T16:45:16.940Z,4.5
2023-05-24T16:50:16.959Z,4.5
2023-05-24T16:55:17.041Z,4.5
2023-05-24T17:00:16.986Z,4.4
2023-05-24T17:05:17.388Z,4.4
2023-05-24T17:10:17.055Z,4.4
2023-05-24T17:15:17.167Z,4.4
2023-05-24T17:20:16.984Z,4.4
2023-05-24T17:24:10.875Z,4.4
2023-05-24T17:30:35.611Z,4.3
2023-05-24T17:35:17.320Z,4.3
2023-05-24T17:40:17.315Z,4.2
2023-05-24T17:45:17.427Z,4.1
2023-05-24T17:50:17.357Z,4.0
2023-05-24T17:55:18.117Z,4.0
2023-05-24T18:00:17.727Z,3.9
2023-05-24T18:05:17.512Z,3.8
2023-05-24T18:10:17.443Z,3.7
2023-05-24T18:15:17.476Z,3.7
2023-05-24T18:20:17.530Z,3.6
2023-05-24T18:25:17.704Z,3.5
2023-05-24T18:30:17.916Z,3.4
2023-05-24T18:35:17.563Z,3.3
2023-05-24T18:40:17.619Z,3.2
2023-05-24T18:45:17.582Z,3.1
2023-05-24T18:50:17.499Z,3.1
2023-05-24T18:55:17.696Z,3.0
2023-05-24T19:00:17.732Z,2.9
2023-05-24T19:05:17.625Z,2.8
2023-05-24T19:10:17.822Z,2.7
2023-05-24T19:15:17.740Z,2.7
2023-05-24T19:20:17.622Z,2.6
2023-05-24T19:25:18.514Z,2.5
2023-05-24T19:30:17.838Z,2.4
2023-05-24T19:35:17.784Z,2.3
2023-05-24T19:40:17.837Z,2.2
2023-05-24T19:45:17.995Z,2.1
2023-05-24T19:50:17.654Z,2.1
2023-05-24T19:55:17.616Z,2.0
2023-05-24T20:00:17.625Z,1.9
2023-05-24T20:05:17.753Z,1.8
2023-05-24T20:10:17.607Z,1.7
2023-05-24T20:15:17.795Z,1.7
2023-05-24T20:20:17.659Z,1.6
2023-05-24T20:25:17.652Z,1.5
2023-05-24T20:30:17.783Z,1.4
2023-05-24T20:35:17.957Z,1.4
2023-05-24T20:40:17.585Z,1.3
2023-05-24T20:45:17.864Z,1.2
2023-05-24T20:50:17.745Z,1.2
2023-05-24T20:55:17.616Z,1.1
2023-05-24T21:00:17.848Z,1.0
2023-05-24T21:05:17.753Z,1.0
2023-05-24T21:10:17.682Z,0.9
2023-05-24T21:15:17.884Z,0.9
2023-05-24T21:20:17.718Z,0.8
2023-05-24T21:25:18.829Z,0.8
2023-05-24T21:30:17.983Z,0.7
2023-05-24T21:35:17.736Z,0.6
2023-05-24T21:40:17.703Z,0.4
2023-05-24T21:45:18.017Z,0.0
2023-05-24T21:50:17.869Z,0.0
2023-05-24T21:55:17.981Z,0.0
2023-05-24T22:00:18.444Z,0.0
2023-05-24T22:05:17.876Z,0.0
2023-05-24T22:10:17.814Z,0.0
2023-05-24T22:15:18.413Z,0.0
2023-05-24T22:20:17.951Z,0.0
2023-05-24T22:25:18.042Z,0.0
2023-05-24T22:30:17.943Z,0.0
2023-05-24T22:35:18.013Z,0.0
2023-05-24T22:40:17.830Z,0.0
2023-05-24T22:45:17.966Z,0.0
2023-05-24T22:50:17.865Z,0.0
2023-05-24T22:55:18.081Z,0.0
2023-05-24T23:00:17.908Z,0.0
2023-05-24T23:05:18.088Z,0.0
2023-05-24T23:10:18.001Z,0.0
2023-05-24T23:15:18.007Z,0.0
2023-05-24T23:20:17.910Z,0.0
2023-05-24T23:25:18.864Z,0.0
2023-05-24T23:30:18.214Z,0.0
2023-05-24T23:35:17.971Z,0.0
2023-05-24T23:40:18.059Z,0.0
2023-05-24T23:45:18.218Z,0.0
2023-05-24T23:50:17.881Z,0.0
2023-05-24T23:55:18.052Z,0.0
